Time;durP1;ratioP1;P1;durP2;ratioP2;P2;SDS_P1;SDS_P2;PMS_P1;PMS_P2;Temp;Humidity;BMP_temperature;BMP_pressure;BME280_temperature;BME280_humidity;BME280_pressure;Samples;Min_cycle;Max_cycle;Signal;HPM_P1;HPM_P2
2023/05/23 00:01:36;;;;;;;4.40;4.00;;;16.40;99.90;;;;;;5011492;28;20957;-52
2023/05/23 00:04:03;;;;;;;4.87;4.37;;;16.40;99.90;;;;;;5006807;28;20500;-52
2023/05/23 00:06:30;;;;;;;5.63;4.27;;;16.40;99.90;;;;;;5009289;28;20492;-52
2023/05/23 00:08:57;;;;;;;6.13;4.43;;;16.40;99.90;;;;;;5007246;28;20475;-51
2023/05/23 00:11:25;;;;;;;6.20;4.23;;;16.40;99.90;;;;;;5006183;28;20527;-52
2023/05/23 00:13:52;;;;;;;10.13;3.97;;;16.40;99.90;;;;;;5011351;28;20551;-51
2023/05/23 00:16:20;;;;;;;4.23;3.83;;;16.40;99.90;;;;;;5006937;28;20611;-51
2023/05/23 00:18:46;;;;;;;3.80;3.60;;;16.40;99.90;;;;;;5010862;28;21031;-52
2023/05/23 00:21:13;;;;;;;5.37;3.77;;;16.40;99.90;;;;;;5011212;28;20499;-52
2023/05/23 00:23:42;;;;;;;6.40;4.23;;;16.30;99.90;;;;;;5011202;28;20950;-51
2023/05/23 00:26:08;;;;;;;6.37;4.27;;;16.40;99.90;;;;;;5008662;28;20459;-51
2023/05/23 00:28:35;;;;;;;4.13;3.73;;;16.40;99.90;;;;;;5009646;28;20596;-51
2023/05/23 00:31:01;;;;;;;7.37;4.90;;;16.40;99.90;;;;;;5010202;28;20489;-51
2023/05/23 00:33:28;;;;;;;5.67;4.27;;;16.40;99.90;;;;;;5011996;28;20960;-51
2023/05/23 00:35:55;;;;;;;3.90;3.60;;;16.30;99.90;;;;;;5015412;28;20542;-51
2023/05/23 00:38:21;;;;;;;3.90;3.60;;;16.30;99.90;;;;;;5014196;28;20518;-51
2023/05/23 00:40:49;;;;;;;9.53;3.97;;;16.30;99.90;;;;;;5013728;28;20475;-51
2023/05/23 00:43:15;;;;;;;10.43;3.90;;;16.20;99.90;;;;;;5014264;28;20930;-51
2023/05/23 00:45:42;;;;;;;8.53;3.70;;;16.20;99.90;;;;;;5010071;28;20542;-51
2023/05/23 00:48:08;;;;;;;4.60;3.93;;;16.20;99.90;;;;;;5013525;28;20534;-51
2023/05/23 00:50:35;;;;;;;3.87;3.57;;;16.20;99.90;;;;;;5014912;28;20600;-51
2023/05/23 00:53:02;;;;;;;4.83;4.10;;;16.20;99.90;;;;;;5014819;28;20514;-51
2023/05/23 00:55:29;;;;;;;4.83;4.20;;;16.20;99.90;;;;;;5014885;28;20570;-51
2023/05/23 00:57:56;;;;;;;5.40;4.73;;;16.20;99.90;;;;;;5014984;28;20470;-51
2023/05/23 01:00:24;;;;;;;5.77;4.30;;;16.20;99.90;;;;;;5014226;28;20496;-51
2023/05/23 01:02:52;;;;;;;6.27;3.80;;;16.10;99.90;;;;;;5014383;28;20468;-51
2023/05/23 01:05:21;;;;;;;4.23;3.90;;;16.10;99.90;;;;;;5013770;28;20462;-51
2023/05/23 01:07:48;;;;;;;4.60;4.30;;;16.00;99.90;;;;;;5008569;28;20479;-51
2023/05/23 01:10:16;;;;;;;6.87;4.30;;;15.90;99.90;;;;;;5014313;28;20503;-51
2023/05/23 01:12:50;;;;;;;5.70;4.00;;;15.90;99.90;;;;;;5015304;28;20485;-51
2023/05/23 01:15:21;;;;;;;4.47;3.90;;;15.80;99.90;;;;;;5013895;28;21070;-51
2023/05/23 01:18:02;;;;;;;6.50;3.80;;;15.80;99.90;;;;;;5012959;28;20579;-51
2023/05/23 01:20:33;;;;;;;5.13;4.73;;;15.80;99.90;;;;;;5013655;28;20525;-51
2023/05/23 01:23:10;;;;;;;4.50;4.03;;;15.70;99.90;;;;;;5014153;28;21032;-52
2023/05/23 01:25:48;;;;;;;16.03;4.03;;;15.70;99.90;;;;;;5004512;28;20484;-51
2023/05/23 01:28:18;;;;;;;4.73;4.00;;;15.70;99.90;;;;;;5011348;28;20498;-51
2023/05/23 01:30:48;;;;;;;4.07;3.77;;;15.70;99.90;;;;;;5007043;28;20488;-52
2023/05/23 01:33:16;;;;;;;7.90;4.40;;;15.60;99.90;;;;;;5014725;28;20981;-51
2023/05/23 01:35:43;;;;;;;4.83;4.03;;;15.60;99.90;;;;;;5012250;28;20906;-52
2023/05/23 01:38:10;;;;;;;13.23;4.30;;;15.50;99.90;;;;;;5013354;28;20562;-51
2023/05/23 01:40:36;;;;;;;9.40;4.63;;;15.50;99.90;;;;;;5014113;28;20543;-51
2023/05/23 01:43:03;;;;;;;5.00;4.57;;;15.50;99.90;;;;;;5014297;28;20487;-51
2023/05/23 01:45:31;;;;;;;4.80;4.30;;;15.50;99.90;;;;;;5007278;28;20491;-51
2023/05/23 01:47:58;;;;;;;7.53;4.30;;;15.50;99.90;;;;;;5012520;28;20626;-51
2023/05/23 01:50:26;;;;;;;4.57;4.17;;;15.40;99.90;;;;;;5010968;28;20564;-55
2023/05/23 01:52:54;;;;;;;6.97;4.63;;;15.40;99.90;;;;;;5011754;28;20498;-51
2023/05/23 01:55:23;;;;;;;8.87;4.50;;;15.40;99.90;;;;;;5005013;28;21070;-51
2023/05/23 01:57:51;;;;;;;4.77;4.17;;;15.40;99.90;;;;;;5013494;28;20487;-51
2023/05/23 02:00:18;;;;;;;4.53;3.97;;;15.40;99.90;;;;;;5010479;28;20548;-52
2023/05/23 02:02:46;;;;;;;4.43;4.03;;;15.40;99.90;;;;;;5013119;28;20475;-52
2023/05/23 02:05:13;;;;;;;5.17;4.30;;;15.40;99.90;;;;;;5008669;28;21058;-51
2023/05/23 02:07:40;;;;;;;4.57;4.03;;;15.40;99.90;;;;;;5011561;28;20515;-51
2023/05/23 02:10:09;;;;;;;3.83;3.50;;;15.40;99.90;;;;;;5007569;28;20459;-52
2023/05/23 02:12:36;;;;;;;6.13;4.77;;;15.40;99.90;;;;;;5010837;28;21000;-51
2023/05/23 02:15:03;;;;;;;5.40;4.10;;;15.40;99.90;;;;;;5011839;28;20464;-51
2023/05/23 02:17:29;;;;;;;25.97;4.73;;;15.40;99.90;;;;;;5010742;28;20487;-51
2023/05/23 02:19:57;;;;;;;4.43;4.03;;;15.40;99.90;;;;;;5012253;28;20552;-52
2023/05/23 02:22:24;;;;;;;6.80;4.80;;;15.40;99.90;;;;;;5006435;28;20937;-51
2023/05/23 02:24:51;;;;;;;7.23;4.30;;;15.40;99.90;;;;;;5002622;28;20548;-51
2023/05/23 02:27:17;;;;;;;4.77;4.37;;;15.30;99.90;;;;;;5013382;28;20582;-51
2023/05/23 02:29:44;;;;;;;5.07;4.30;;;15.40;99.90;;;;;;5012884;28;20531;-51
2023/05/23 02:32:11;;;;;;;6.10;4.33;;;15.30;99.90;;;;;;5011890;28;20544;-51
2023/05/23 02:34:38;;;;;;;9.50;3.67;;;15.40;99.90;;;;;;5006512;28;21033;-52
2023/05/23 02:37:06;;;;;;;4.93;4.20;;;15.30;99.90;;;;;;5000686;28;20502;-51
2023/05/23 02:39:32;;;;;;;4.83;4.20;;;15.30;99.90;;;;;;5011164;28;20492;-51
2023/05/23 02:41:59;;;;;;;4.57;4.17;;;15.30;99.90;;;;;;5012643;28;20554;-52
2023/05/23 02:44:25;;;;;;;6.87;4.20;;;15.30;99.90;;;;;;5011375;28;20921;-52
2023/05/23 02:46:52;;;;;;;5.10;4.60;;;15.30;99.90;;;;;;5012189;28;20467;-51
2023/05/23 02:49:19;;;;;;;4.60;4.03;;;15.30;99.90;;;;;;5010393;28;20519;-52
2023/05/23 02:51:45;;;;;;;6.37;4.67;;;15.30;99.90;;;;;;5011143;28;21086;-52
2023/05/23 02:54:13;;;;;;;7.57;4.73;;;15.20;99.90;;;;;;5006627;28;20507;-51
2023/05/23 02:56:39;;;;;;;11.30;4.63;;;15.30;99.90;;;;;;5008254;28;20567;-51
2023/05/23 02:59:06;;;;;;;5.20;4.70;;;15.30;99.90;;;;;;5004680;28;20555;-51
2023/05/23 03:01:33;;;;;;;4.30;4.00;;;15.30;99.90;;;;;;5006125;28;20486;-51
2023/05/23 03:04:00;;;;;;;4.80;4.43;;;15.30;99.90;;;;;;5006665;28;20950;-52
2023/05/23 03:06:26;;;;;;;5.10;4.60;;;15.30;99.90;;;;;;5011420;28;20546;-52
2023/05/23 03:08:53;;;;;;;5.53;4.37;;;15.30;99.90;;;;;;5010878;28;20647;-52
2023/05/23 03:11:21;;;;;;;4.60;4.17;;;15.30;99.90;;;;;;5007068;28;20493;-52
2023/05/23 03:13:48;;;;;;;6.47;5.30;;;15.30;99.90;;;;;;5007547;28;20470;-51
2023/05/23 03:16:14;;;;;;;6.27;4.83;;;15.30;99.90;;;;;;5012302;28;20774;-53
2023/05/23 03:18:41;;;;;;;8.53;4.77;;;15.30;99.90;;;;;;5008077;28;20484;-50
2023/05/23 03:21:08;;;;;;;6.17;4.27;;;15.30;99.90;;;;;;5011502;28;20464;-51
2023/05/23 03:23:35;;;;;;;4.90;4.50;;;15.30;99.90;;;;;;5011585;28;20471;-52
2023/05/23 03:26:02;;;;;;;10.77;4.87;;;15.30;99.90;;;;;;5011039;28;20559;-52
2023/05/23 03:28:30;;;;;;;5.20;4.70;;;15.20;99.90;;;;;;5006739;28;21073;-52
2023/05/23 03:30:57;;;;;;;5.33;4.70;;;15.20;99.90;;;;;;5008571;28;20555;-51
2023/05/23 03:33:24;;;;;;;10.73;4.70;;;15.20;99.90;;;;;;5007402;28;20564;-52
2023/05/23 03:35:51;;;;;;;4.77;4.37;;;15.20;99.90;;;;;;5008028;28;20466;-53
2023/05/23 03:38:18;;;;;;;5.63;4.60;;;15.20;99.90;;;;;;5010361;28;20494;-53
2023/05/23 03:40:44;;;;;;;7.83;4.93;;;15.20;99.90;;;;;;5008631;28;20503;-51
2023/05/23 03:43:11;;;;;;;5.37;4.97;;;15.20;99.90;;;;;;5008455;28;20555;-53
2023/05/23 03:45:39;;;;;;;5.57;5.07;;;15.20;99.90;;;;;;5009403;28;20550;-52
2023/05/23 03:48:05;;;;;;;5.60;5.03;;;15.20;99.90;;;;;;5007364;28;20571;-52
2023/05/23 03:50:32;;;;;;;7.10;5.53;;;15.20;99.90;;;;;;5007686;28;20496;-51
2023/05/23 03:52:58;;;;;;;7.60;5.17;;;15.20;99.90;;;;;;5005410;28;20965;-51
2023/05/23 03:55:25;;;;;;;6.63;5.00;;;15.20;99.90;;;;;;5009218;28;20551;-51
2023/05/23 03:57:52;;;;;;;5.30;4.80;;;15.20;99.90;;;;;;5007882;28;20578;-52
2023/05/23 04:00:19;;;;;;;7.33;4.63;;;15.20;99.90;;;;;;5010683;28;20503;-53
2023/05/23 04:02:47;;;;;;;7.20;6.10;;;15.10;99.90;;;;;;5008742;28;20547;-51
2023/05/23 04:05:13;;;;;;;7.60;6.57;;;15.20;99.90;;;;;;5003662;28;20894;-55
2023/05/23 04:07:41;;;;;;;12.20;5.30;;;15.20;99.90;;;;;;5010762;28;20563;-54
2023/05/23 04:10:09;;;;;;;5.97;5.40;;;15.20;99.90;;;;;;5007449;28;20495;-53
2023/05/23 04:12:35;;;;;;;6.90;5.03;;;15.10;99.90;;;;;;5007147;28;20455;-55
2023/05/23 04:15:02;;;;;;;8.23;5.07;;;15.10;99.90;;;;;;5006970;28;20559;-55
2023/05/23 04:17:30;;;;;;;5.80;5.30;;;15.10;99.90;;;;;;5009166;28;20494;-55
2023/05/23 04:19:58;;;;;;;8.33;5.00;;;15.10;99.90;;;;;;5008666;28;21043;-55
2023/05/23 04:22:24;;;;;;;7.37;4.47;;;15.10;99.90;;;;;;5002805;28;20463;-55
2023/05/23 04:24:51;;;;;;;5.27;4.77;;;15.10;99.90;;;;;;5008106;28;20571;-51
2023/05/23 04:27:18;;;;;;;6.63;5.07;;;15.10;99.90;;;;;;5009257;28;20484;-51
2023/05/23 04:29:45;;;;;;;10.40;5.37;;;15.10;99.90;;;;;;5007392;28;20978;-53
2023/05/23 04:32:12;;;;;;;6.47;4.97;;;15.10;99.90;;;;;;5009918;28;20464;-51
2023/05/23 04:34:40;;;;;;;5.77;5.20;;;15.00;99.90;;;;;;5009489;28;20949;-51
2023/05/23 04:37:08;;;;;;;6.17;4.50;;;15.00;99.90;;;;;;5007715;28;20487;-52
2023/05/23 04:39:35;;;;;;;5.87;5.37;;;15.00;99.90;;;;;;5009089;28;20946;-52
2023/05/23 04:42:01;;;;;;;5.30;4.80;;;15.00;99.90;;;;;;5006716;28;20486;-51
2023/05/23 04:44:29;;;;;;;6.20;5.60;;;15.00;99.90;;;;;;5008227;28;20467;-51
2023/05/23 04:46:55;;;;;;;7.50;5.23;;;15.00;99.90;;;;;;5006859;28;20463;-51
2023/05/23 04:49:22;;;;;;;6.27;5.10;;;15.00;99.90;;;;;;5009116;28;20487;-52
2023/05/23 04:51:49;;;;;;;7.00;5.57;;;15.00;99.90;;;;;;5010097;28;20468;-52
2023/05/23 04:54:18;;;;;;;4.73;4.33;;;15.00;99.90;;;;;;5008907;28;20487;-53
2023/05/23 04:56:44;;;;;;;14.23;5.33;;;15.00;99.90;;;;;;5009253;28;20479;-52
2023/05/23 04:59:12;;;;;;;6.53;5.93;;;15.00;99.90;;;;;;5009070;28;20546;-52
2023/05/23 05:01:39;;;;;;;8.23;5.40;;;15.10;99.90;;;;;;5007401;28;20468;-52
2023/05/23 05:04:05;;;;;;;9.83;5.30;;;15.00;99.90;;;;;;5007532;28;20468;-52
2023/05/23 05:06:32;;;;;;;5.73;4.70;;;15.10;99.90;;;;;;5006583;28;20555;-51
2023/05/23 05:08:59;;;;;;;7.60;5.17;;;15.10;99.10;;;;;;5008379;28;20480;-51
2023/05/23 05:11:27;;;;;;;6.33;4.53;;;15.10;99.90;;;;;;5014009;28;21043;-51
2023/05/23 05:13:53;;;;;;;6.13;5.57;;;15.10;99.90;;;;;;5006415;28;20467;-52
2023/05/23 05:16:20;;;;;;;10.40;5.50;;;15.10;99.00;;;;;;5006655;28;20615;-51
2023/05/23 05:18:47;;;;;;;8.23;5.53;;;15.00;99.90;;;;;;5005931;28;21074;-51
2023/05/23 05:21:13;;;;;;;6.20;5.43;;;15.10;99.90;;;;;;5011102;28;20547;-52
2023/05/23 05:23:40;;;;;;;6.90;5.43;;;15.10;97.70;;;;;;5012333;28;20558;-52
2023/05/23 05:26:07;;;;;;;8.50;5.40;;;15.10;97.40;;;;;;5007478;28;20466;-51
2023/05/23 05:28:35;;;;;;;11.20;4.80;;;15.10;92.20;;;;;;5012311;28;20929;-51
2023/05/23 05:31:03;;;;;;;6.30;5.70;;;15.10;93.00;;;;;;5012047;28;20459;-51
2023/05/23 05:33:34;;;;;;;18.17;5.20;;;15.10;91.50;;;;;;5011067;28;20471;-52
2023/05/23 05:36:01;;;;;;;9.67;5.23;;;15.20;92.90;;;;;;5013859;28;20460;-52
2023/05/23 05:38:27;;;;;;;6.87;5.80;;;15.20;90.60;;;;;;5011577;28;20488;-52
2023/05/23 05:40:54;;;;;;;5.80;5.27;;;15.10;94.70;;;;;;5014488;28;20562;-52
2023/05/23 05:43:21;;;;;;;8.47;5.57;;;15.20;81.60;;;;;;5012788;28;20964;-53
2023/05/23 05:45:49;;;;;;;17.40;4.87;;;15.20;85.10;;;;;;5009314;28;20468;-51
2023/05/23 05:48:16;;;;;;;9.27;5.13;;;15.20;85.40;;;;;;5011753;28;20475;-52
2023/05/23 05:50:44;;;;;;;8.00;6.17;;;15.30;82.10;;;;;;5013526;28;20456;-53
2023/05/23 05:53:11;;;;;;;6.33;5.60;;;15.30;80.20;;;;;;5011823;28;20507;-52
2023/05/23 05:55:37;;;;;;;13.43;5.67;;;15.30;78.00;;;;;;5007684;28;21193;-51
2023/05/23 05:58:04;;;;;;;20.77;5.50;;;15.30;82.20;;;;;;5007976;28;20487;-52
2023/05/23 06:00:31;;;;;;;9.77;5.53;;;15.30;82.10;;;;;;5012068;28;20469;-51
2023/05/23 06:02:59;;;;;;;15.40;6.93;;;15.30;84.10;;;;;;5011003;28;20550;-52
2023/05/23 06:05:26;;;;;;;10.10;6.30;;;15.40;83.70;;;;;;5013867;28;20514;-53
2023/05/23 06:07:53;;;;;;;13.40;5.63;;;15.40;83.20;;;;;;5013864;28;20456;-50
2023/05/23 06:10:19;;;;;;;10.17;5.60;;;15.50;81.60;;;;;;5013850;28;20476;-51
2023/05/23 06:12:46;;;;;;;11.87;6.13;;;15.50;81.30;;;;;;5014036;28;20444;-51
2023/05/23 06:15:13;;;;;;;9.70;5.73;;;15.60;79.00;;;;;;5011828;28;20499;-50
2023/05/23 06:17:40;;;;;;;5.83;5.20;;;15.60;80.90;;;;;;5013056;28;21001;-51
2023/05/23 06:20:08;;;;;;;6.90;5.40;;;15.60;74.00;;;;;;5010699;28;21031;-51
2023/05/23 06:22:35;;;;;;;10.13;7.50;;;15.60;72.70;;;;;;5002696;28;20491;-52
2023/05/23 06:25:02;;;;;;;7.93;5.50;;;15.60;73.30;;;;;;5009870;28;20820;-51
2023/05/23 06:27:28;;;;;;;6.33;5.83;;;15.70;72.40;;;;;;5009146;28;21044;-53
2023/05/23 06:29:55;;;;;;;12.90;6.10;;;15.70;69.50;;;;;;5012548;28;20551;-52
2023/05/23 06:32:21;;;;;;;7.40;5.50;;;15.80;70.10;;;;;;5009594;28;20554;-51
2023/05/23 06:34:48;;;;;;;11.00;6.60;;;15.70;77.80;;;;;;5008564;28;20569;-51
2023/05/23 06:37:16;;;;;;;6.40;5.80;;;15.80;77.20;;;;;;5012543;28;20515;-52
2023/05/23 06:39:43;;;;;;;9.43;6.13;;;15.80;79.60;;;;;;5007452;28;20487;-51
2023/05/23 06:42:10;;;;;;;6.90;5.70;;;15.90;72.50;;;;;;4994149;28;20563;-51
2023/05/23 06:44:36;;;;;;;6.83;6.10;;;16.00;76.90;;;;;;5007297;28;20468;-51
2023/05/23 06:47:03;;;;;;;7.63;6.10;;;16.10;76.90;;;;;;5011027;28;20508;-51
2023/05/23 06:49:29;;;;;;;6.70;5.73;;;16.20;77.70;;;;;;5011494;28;21227;-52
2023/05/23 06:51:56;;;;;;;14.27;5.87;;;16.30;67.70;;;;;;5007998;28;20463;-58
2023/05/23 06:54:24;;;;;;;13.03;6.60;;;16.30;72.40;;;;;;5003825;28;21059;-52
2023/05/23 06:56:50;;;;;;;16.00;6.13;;;16.30;78.80;;;;;;5012713;28;20518;-52
2023/05/23 06:59:17;;;;;;;10.73;5.93;;;16.40;69.80;;;;;;4997773;28;20448;-51
2023/05/23 07:01:44;;;;;;;10.57;7.23;;;16.40;71.80;;;;;;5010231;28;20554;-52
2023/05/23 07:04:11;;;;;;;13.13;6.23;;;16.40;64.80;;;;;;5004708;28;20539;-51
2023/05/23 07:06:38;;;;;;;8.73;6.40;;;16.50;58.70;;;;;;5009326;28;20492;-52
2023/05/23 07:09:05;;;;;;;8.47;6.13;;;16.60;47.30;;;;;;5012092;28;20957;-52
2023/05/23 07:11:34;;;;;;;9.80;6.33;;;16.60;51.20;;;;;;5012160;28;20555;-51
2023/05/23 07:14:00;;;;;;;19.43;6.60;;;16.60;47.40;;;;;;5006791;28;20499;-51
2023/05/23 07:16:27;;;;;;;10.77;6.87;;;16.70;51.00;;;;;;5007632;28;20467;-51
2023/05/23 07:18:53;;;;;;;8.07;6.20;;;16.60;52.60;;;;;;5004807;28;20586;-52
2023/05/23 07:21:20;;;;;;;13.87;5.97;;;16.70;57.20;;;;;;5006069;28;20492;-53
2023/05/23 07:23:46;;;;;;;7.60;6.47;;;16.60;60.60;;;;;;5011924;28;21041;-52
2023/05/23 07:26:13;;;;;;;17.40;6.70;;;16.60;58.90;;;;;;5010177;28;20543;-52
2023/05/23 07:28:41;;;;;;;14.53;6.40;;;16.60;65.70;;;;;;5009670;28;20519;-51
2023/05/23 07:31:08;;;;;;;22.73;6.87;;;16.50;53.90;;;;;;5010331;28;21000;-52
2023/05/23 07:33:34;;;;;;;16.13;6.63;;;16.50;58.50;;;;;;5010835;28;20456;-51
2023/05/23 07:36:01;;;;;;;17.17;7.23;;;16.70;48.40;;;;;;5011277;28;20483;-52
2023/05/23 07:38:27;;;;;;;12.23;6.13;;;16.80;47.60;;;;;;5009990;28;20515;-52
2023/05/23 07:40:54;;;;;;;14.53;7.87;;;16.90;49.60;;;;;;5010309;28;20487;-52
2023/05/23 07:43:21;;;;;;;17.77;6.83;;;17.00;64.70;;;;;;5009175;28;20491;-52
2023/05/23 07:45:49;;;;;;;10.97;6.53;;;17.10;62.10;;;;;;5011984;28;20953;-52
2023/05/23 07:48:15;;;;;;;19.00;7.67;;;17.20;62.60;;;;;;5006177;28;20483;-51
2023/05/23 07:50:42;;;;;;;17.13;7.63;;;17.40;68.40;;;;;;5010423;28;20471;-52
2023/05/23 07:53:08;;;;;;;18.53;6.10;;;17.50;99.90;;;;;;5008832;28;20487;-53
2023/05/23 07:55:35;;;;;;;16.00;6.27;;;17.70;99.90;;;;;;5003426;28;20915;-52
2023/05/23 07:58:02;;;;;;;13.40;6.60;;;17.80;99.90;;;;;;5009520;28;20587;-52
2023/05/23 08:00:28;;;;;;;14.40;6.53;;;17.80;99.90;;;;;;5010911;28;20454;-52
2023/05/23 08:02:56;;;;;;;14.23;6.10;;;17.90;99.90;;;;;;5007593;28;20548;-52
2023/05/23 08:05:23;;;;;;;12.27;6.40;;;17.90;99.90;;;;;;5006148;28;20530;-50
2023/05/23 08:07:49;;;;;;;9.53;6.60;;;18.00;99.90;;;;;;5008407;28;20571;-53
2023/05/23 08:10:16;;;;;;;13.60;6.87;;;18.10;99.90;;;;;;5003740;28;20464;-52
2023/05/23 08:12:42;;;;;;;6.20;5.60;;;18.10;99.90;;;;;;5001584;28;20550;-51
2023/05/23 08:15:10;;;;;;;18.90;6.80;;;18.10;99.90;;;;;;5008378;28;20491;-51
2023/05/23 08:17:36;;;;;;;16.90;6.50;;;18.30;99.90;;;;;;5007187;28;20487;-52
2023/05/23 08:20:06;;;;;;;11.00;6.80;;;18.40;99.90;;;;;;5009753;28;20448;-52
2023/05/23 08:22:32;;;;;;;6.50;5.90;;;18.40;99.90;;;;;;5004297;28;20514;-52
2023/05/23 08:24:59;;;;;;;16.53;6.93;;;18.60;99.90;;;;;;5005983;28;20547;-53
2023/05/23 08:27:25;;;;;;;8.20;6.30;;;18.70;99.90;;;;;;5004514;28;21101;-51
2023/05/23 08:29:52;;;;;;;7.87;6.10;;;18.90;99.90;;;;;;5008383;28;20522;-52
2023/05/23 08:32:19;;;;;;;9.00;6.43;;;19.10;99.90;;;;;;5008524;28;20890;-52
2023/05/23 08:34:45;;;;;;;15.40;6.63;;;19.00;99.90;;;;;;5012331;28;21053;-52
2023/05/23 08:37:13;;;;;;;6.90;6.20;;;18.90;99.90;;;;;;5008064;28;20561;-51
2023/05/23 08:39:40;;;;;;;6.87;5.80;;;19.10;99.90;;;;;;5006098;28;20468;-51
2023/05/23 08:42:07;;;;;;;15.07;6.47;;;19.30;99.90;;;;;;5009262;28;20464;-51
2023/05/23 08:44:34;;;;;;;13.00;7.20;;;19.60;99.90;;;;;;5006118;28;20924;-52
2023/05/23 08:47:05;;;;;;;11.60;7.40;;;19.70;99.90;;;;;;5009904;28;20993;-51
2023/05/23 08:49:32;;;;;;;10.73;6.17;;;19.70;99.90;;;;;;5002929;28;20973;-51
2023/05/23 08:52:02;;;;;;;8.80;6.30;;;19.90;99.90;;;;;;5002373;28;20460;-52
2023/05/23 08:54:31;;;;;;;10.67;6.30;;;20.00;99.90;;;;;;5011371;28;20443;-52
2023/05/23 08:56:58;;;;;;;26.77;6.63;;;20.10;99.90;;;;;;5010393;28;20463;-51
2023/05/23 08:59:27;;;;;;;6.90;5.87;;;20.20;99.90;;;;;;5011554;28;20492;-53
2023/05/23 09:01:55;;;;;;;6.90;6.20;;;20.40;99.90;;;;;;5011425;28;20486;-51
2023/05/23 09:04:22;;;;;;;6.90;6.30;;;20.50;99.90;;;;;;5014952;28;20463;-51
2023/05/23 09:06:49;;;;;;;13.70;5.73;;;20.40;99.90;;;;;;5012274;28;20494;-50
2023/05/23 09:09:16;;;;;;;7.50;6.60;;;20.50;99.90;;;;;;5011787;28;20455;-51
2023/05/23 09:11:44;;;;;;;7.70;6.20;;;20.50;99.90;;;;;;5014141;28;20494;-52
2023/05/23 09:14:13;;;;;;;8.40;6.73;;;20.50;99.90;;;;;;5006104;28;20455;-52
2023/05/23 09:16:40;;;;;;;15.03;5.63;;;20.50;99.90;;;;;;5010904;28;20471;-52
2023/05/23 09:19:13;;;;;;;8.00;6.67;;;20.60;99.90;;;;;;5010307;28;20515;-52
2023/05/23 09:21:43;;;;;;;12.40;6.60;;;20.70;99.90;;;;;;5005230;28;20923;-52
2023/05/23 09:24:09;;;;;;;13.60;5.87;;;20.90;99.90;;;;;;5009572;28;20488;-52
2023/05/23 09:26:36;;;;;;;6.97;5.30;;;20.90;99.90;;;;;;5008537;28;20495;-53
2023/05/23 09:29:07;;;;;;;6.60;5.83;;;21.00;99.90;;;;;;5014373;28;20598;-53
2023/05/23 09:31:33;;;;;;;8.23;5.40;;;21.10;99.90;;;;;;5008713;28;20464;-51
2023/05/23 09:34:00;;;;;;;6.40;5.70;;;21.40;99.90;;;;;;5010970;28;20571;-53
2023/05/23 09:36:28;;;;;;;6.73;6.17;;;21.80;99.90;;;;;;5003913;28;20918;-51
2023/05/23 09:38:55;;;;;;;14.63;5.30;;;22.10;99.90;;;;;;5012176;28;20479;-52
2023/05/23 09:41:23;;;;;;;6.10;5.60;;;22.40;99.90;;;;;;5013068;28;20492;-53
2023/05/23 09:43:51;;;;;;;9.73;6.53;;;22.50;99.90;;;;;;5013473;28;20566;-51
2023/05/23 09:46:20;;;;;;;8.23;6.87;;;22.60;99.90;;;;;;5013353;28;20963;-51
2023/05/23 09:48:47;;;;;;;7.60;6.33;;;22.80;99.90;;;;;;5014285;28;20555;-52
2023/05/23 09:51:14;;;;;;;7.27;6.03;;;22.90;99.90;;;;;;5014503;28;20985;-52
2023/05/23 09:53:40;;;;;;;16.40;6.27;;;23.20;99.90;;;;;;5011283;28;21019;-53
2023/05/23 09:56:10;;;;;;;9.43;6.80;;;23.80;99.90;;;;;;5014516;28;20914;-51
2023/05/23 09:58:38;;;;;;;9.77;5.87;;;23.90;99.90;;;;;;5010552;28;20483;-52
2023/05/23 10:01:07;;;;;;;6.33;5.73;;;23.30;99.90;;;;;;5013320;28;20491;-52
2023/05/23 10:03:44;;;;;;;7.07;5.90;;;23.00;99.90;;;;;;5008773;28;20483;-52
2023/05/23 10:06:17;;;;;;;11.00;5.53;;;23.00;99.90;;;;;;5009266;28;20487;-52
2023/05/23 10:08:50;;;;;;;6.17;5.57;;;22.60;99.90;;;;;;5011281;28;20464;-52
2023/05/23 10:11:50;;;;;;;8.73;5.83;;;22.60;99.90;;;;;;5014519;28;20488;-52
2023/05/23 10:14:17;;;;;;;7.50;6.00;;;22.40;99.90;;;;;;5011968;28;20957;-52
2023/05/23 10:16:55;;;;;;;10.50;5.30;;;22.30;99.90;;;;;;5011839;28;20491;-52
2023/05/23 10:19:26;;;;;;;8.27;5.67;;;22.00;99.90;;;;;;5013956;28;20479;-52
2023/05/23 10:21:59;;;;;;;6.90;5.87;;;22.00;99.90;;;;;;5014034;28;20900;-52
2023/05/23 10:24:26;;;;;;;13.10;6.10;;;22.10;99.90;;;;;;5012136;28;20464;-52
2023/05/23 10:26:53;;;;;;;7.40;6.60;;;22.20;99.90;;;;;;5011477;28;20475;-52
2023/05/23 10:29:21;;;;;;;9.73;5.53;;;22.20;99.90;;;;;;5022661;22;20532;-54
2023/05/23 10:31:48;;;;;;;6.07;5.47;;;22.30;99.90;;;;;;5008122;28;20555;-52
2023/05/23 10:34:22;;;;;;;10.37;5.97;;;22.30;99.90;;;;;;5009827;28;21008;-52
2023/05/23 10:36:57;;;;;;;13.23;5.07;;;22.40;99.90;;;;;;5011194;28;20494;-53
2023/05/23 10:39:40;;;;;;;6.83;5.10;;;22.30;99.90;;;;;;5011739;28;20575;-52
2023/05/23 10:42:13;;;;;;;7.47;4.80;;;22.10;99.90;;;;;;5002581;28;20540;-51
2023/05/23 10:44:39;;;;;;;11.73;6.37;;;22.00;99.90;;;;;;5011734;28;20547;-53
2023/05/23 10:47:06;;;;;;;7.37;5.43;;;22.10;99.90;;;;;;5012664;28;20563;-51
2023/05/23 10:49:40;;;;;;;15.53;5.53;;;22.40;99.90;;;;;;5011642;28;20484;-51
2023/05/23 10:52:10;;;;;;;7.00;5.13;;;22.30;99.90;;;;;;5001511;28;20501;-53
2023/05/23 10:54:37;;;;;;;7.60;5.17;;;22.10;99.90;;;;;;5008437;28;20502;-51
2023/05/23 10:57:04;;;;;;;10.17;5.87;;;22.00;99.90;;;;;;5006772;28;20524;-54
2023/05/23 10:59:31;;;;;;;5.83;5.33;;;21.50;99.90;;;;;;5027721;28;20554;-51
2023/05/23 11:01:59;;;;;;;8.67;5.37;;;21.40;99.90;;;;;;5025817;28;20468;-52
2023/05/23 11:04:26;;;;;;;9.53;5.67;;;21.10;99.90;;;;;;5013529;28;20456;-54
2023/05/23 11:06:54;;;;;;;5.73;5.30;;;20.80;99.90;;;;;;5012180;28;20467;-54
2023/05/23 11:09:22;;;;;;;5.00;4.60;;;20.60;99.90;;;;;;5012131;28;20978;-52
2023/05/23 11:11:52;;;;;;;7.50;5.20;;;20.50;99.90;;;;;;5012650;28;20531;-53
2023/05/23 11:14:30;;;;;;;6.03;4.83;;;20.30;99.90;;;;;;5004641;28;20459;-51
2023/05/23 11:16:57;;;;;;;7.13;5.20;;;20.40;99.90;;;;;;5011589;28;20902;-51
2023/05/23 11:19:27;;;;;;;5.80;5.20;;;20.50;99.90;;;;;;5011778;28;20590;-52
2023/05/23 11:21:55;;;;;;;5.87;5.37;;;20.50;99.90;;;;;;5006783;28;20555;-53
2023/05/23 11:24:24;;;;;;;5.93;5.47;;;20.50;99.90;;;;;;5005419;28;21028;-51
2023/05/23 11:26:58;;;;;;;5.70;5.20;;;20.40;99.90;;;;;;5012869;28;20510;-51
2023/05/23 11:29:26;;;;;;;7.10;5.77;;;20.20;99.90;;;;;;5012232;28;20603;-51
2023/05/23 11:31:52;;;;;;;13.83;5.80;;;20.10;99.90;;;;;;5012950;28;20487;-52
2023/05/23 11:34:20;;;;;;;8.07;6.50;;;19.90;86.70;;;;;;5014561;28;21009;-52
2023/05/23 11:36:47;;;;;;;7.93;7.00;;;19.80;44.90;;;;;;5010623;28;20460;-51
2023/05/23 11:39:14;;;;;;;8.33;7.67;;;19.40;99.90;;;;;;5011078;28;20579;-51
2023/05/23 11:41:43;;;;;;;11.00;8.67;;;19.30;99.90;;;;;;5012115;28;20563;-51
2023/05/23 11:44:12;;;;;;;9.23;8.23;;;19.50;99.90;;;;;;5003162;28;20447;-53
2023/05/23 11:46:39;;;;;;;10.23;9.07;;;19.40;99.90;;;;;;5008030;28;20486;-50
2023/05/23 11:49:11;;;;;;;12.27;9.73;;;19.60;99.90;;;;;;5009450;28;20479;-53
2023/05/23 11:51:37;;;;;;;10.97;9.60;;;19.50;99.90;;;;;;5011126;28;20945;-51
2023/05/23 11:54:05;;;;;;;11.53;10.53;;;19.50;99.90;;;;;;5008555;28;20559;-52
2023/05/23 11:56:38;;;;;;;16.53;10.73;;;19.40;99.90;;;;;;5009555;28;20482;-52
2023/05/23 11:59:06;;;;;;;22.07;16.10;;;19.30;83.70;;;;;;5009865;28;20583;-53
2023/05/23 12:01:33;;;;;;;19.00;15.50;;;19.20;73.90;;;;;;5005662;28;21024;-51
2023/05/23 12:04:00;;;;;;;33.07;18.70;;;19.10;41.30;;;;;;5009710;28;22417;-51
2023/05/23 12:06:26;;;;;;;22.40;18.67;;;19.00;99.90;;;;;;5011530;28;20452;-52
2023/05/23 12:08:53;;;;;;;35.87;21.60;;;18.90;99.90;;;;;;5008647;28;20491;-52
2023/05/23 12:11:22;;;;;;;40.03;21.10;;;18.70;99.90;;;;;;5010420;28;20957;-52
2023/05/23 12:13:49;;;;;;;24.53;20.60;;;18.60;99.90;;;;;;5007525;28;21095;-52
2023/05/23 12:16:17;;;;;;;26.87;21.80;;;18.50;99.90;;;;;;5011493;28;20543;-52
2023/05/23 12:18:43;;;;;;;25.77;21.77;;;18.50;99.90;;;;;;5009933;28;20590;-52
2023/05/23 12:21:10;;;;;;;27.57;20.30;;;18.30;99.90;;;;;;5012307;28;20491;-51
2023/05/23 12:23:37;;;;;;;27.40;22.93;;;18.30;99.90;;;;;;5004489;28;20503;-52
2023/05/23 12:26:06;;;;;;;26.83;22.20;;;18.40;99.90;;;;;;5004637;28;21057;-51
2023/05/23 12:28:37;;;;;;;24.43;21.27;;;18.30;99.90;;;;;;5019006;28;20490;-53
2023/05/23 12:31:10;;;;;;;29.43;23.90;;;18.30;99.90;;;;;;5015034;28;20506;-51
2023/05/23 12:33:42;;;;;;;25.03;22.07;;;18.30;99.90;;;;;;5013298;28;20490;-51
2023/05/23 12:36:09;;;;;;;24.27;19.93;;;18.30;99.90;;;;;;5014895;28;20459;-52
2023/05/23 12:38:39;;;;;;;21.93;19.30;;;18.30;99.90;;;;;;5015053;28;20547;-52
2023/05/23 12:41:10;;;;;;;25.43;21.13;;;18.20;99.90;;;;;;5006425;28;20845;-52
2023/05/23 12:43:38;;;;;;;27.30;20.03;;;18.30;99.90;;;;;;5013215;28;20558;-51
2023/05/23 12:46:05;;;;;;;26.67;21.27;;;18.30;99.90;;;;;;5014332;28;20459;-52